»·PEaware :: USC81 KSAN-KLAS

USC81 :: KSAN-KLAS

FLIGHT INFORMATION

Flight Status: Arrived
Operator: Unknown
More flights by this operator :: More flights under this callsign
Pilot: Andy P. (22680)
Aircraft: GATES LEARJET LEARJET 35/36
(LJ35)
More flights by this aircraft type
Origin: KSAN San Diego Intl-Lindbergh
United States
Destination: KLAS McCarran Intl
United States
More flights between these airports :: More routes between these airports
Route: PADRZ2 CHKNN SEBBY YELAH MISEN KEPEC6
File this flight plan on PilotEdge
Remarks:
Altitude:
(Current/Filed)
35,000ft
Speed:
(Current/Filed)
465kts
Departed: 13-Jan-21 02:07 PM
Arrived: 13-Jan-21 03:02 PM
Distance/Time
Traveled:
225nm/0:55
Distance/Time
To Go:
Arrived

Flight Plot

Page will automatically refresh every two minutes.

Flight plan parsing failed; only flown route is shown


Map Options




Map Legend


Flown Route
Filed Route
Departure Airport
Arrival Airport
Navaid (VOR, NDB)
Fix

Horizontal Profiles

Position Reports

Time Latitude Longitude Heading Altitude Ground
Speed
13-Jan-21 13:51 32.737480 -117.185715 343 17ft 0kts
13-Jan-21 13:52 32.737480 -117.185715 343 17ft 0kts
13-Jan-21 13:53 32.737480 -117.185715 343 17ft 0kts
13-Jan-21 13:54 32.737480 -117.185715 343 17ft 0kts
13-Jan-21 13:55 32.737480 -117.185715 343 17ft 0kts
13-Jan-21 13:56 32.737480 -117.185715 343 17ft 0kts
13-Jan-21 13:57 32.737480 -117.185715 343 17ft 0kts
13-Jan-21 13:58 32.737480 -117.185715 343 17ft 0kts
13-Jan-21 13:58 32.737480 -117.185715 343 17ft 0kts
13-Jan-21 14:00 32.737480 -117.185715 343 17ft 0kts
13-Jan-21 14:01 32.737480 -117.185715 343 17ft 0kts
13-Jan-21 14:02 32.737480 -117.185715 343 17ft 0kts
13-Jan-21 14:02 32.737546 -117.185840 271 17ft 6kts
13-Jan-21 14:03 32.734875 -117.184310 144 17ft 20kts
13-Jan-21 14:05 32.732191 -117.179218 106 17ft 18kts
13-Jan-21 14:05 32.731040 -117.175526 160 17ft 0kts
13-Jan-21 14:06 32.734467 -117.193384 286 56ft 152kts
13-Jan-21 14:07 32.759456 -117.246697 304 2364ft 207kts
13-Jan-21 14:08 32.791761 -117.304168 303 5244ft 221kts
13-Jan-21 14:09 32.829680 -117.364782 312 8013ft 233kts
13-Jan-21 14:10 32.869247 -117.427664 310 10530ft 239kts
13-Jan-21 14:11 32.909836 -117.490099 311 12791ft 240kts
13-Jan-21 14:12 32.952940 -117.556671 310 14741ft 267kts
13-Jan-21 14:13 33.003615 -117.635728 309 14982ft 333kts
13-Jan-21 14:14 33.063568 -117.726694 315 16175ft 354kts
13-Jan-21 14:15 33.137917 -117.805025 320 18583ft 359kts
13-Jan-21 14:16 33.213821 -117.881965 321 21420ft 347kts
13-Jan-21 14:17 33.283665 -117.949662 321 24313ft 339kts
13-Jan-21 14:18 33.357877 -118.022157 320 26354ft 347kts
13-Jan-21 14:19 33.433668 -118.096424 320 28255ft 356kts
13-Jan-21 14:20 33.507613 -118.169052 320 29578ft 370kts
13-Jan-21 14:21 33.585448 -118.240070 328 30511ft 391kts
13-Jan-21 14:22 33.676853 -118.290022 341 31650ft 398kts
13-Jan-21 14:23 33.778370 -118.277176 25 33011ft 411kts
13-Jan-21 14:24 33.854168 -118.175883 50 34393ft 420kts
13-Jan-21 14:25 33.922190 -118.060921 50 35220ft 428kts
13-Jan-21 14:26 33.993123 -117.940876 50 35239ft 450kts
13-Jan-21 14:27 34.066857 -117.815656 50 35246ft 463kts
13-Jan-21 14:28 34.145492 -117.692493 45 35247ft 461kts
13-Jan-21 14:29 34.227924 -117.574137 46 35252ft 462kts
13-Jan-21 14:30 34.309695 -117.454490 46 35279ft 462kts
13-Jan-21 14:31 34.391317 -117.334301 46 35311ft 462kts
13-Jan-21 14:32 34.472847 -117.213774 46 35337ft 462kts
13-Jan-21 14:33 34.553969 -117.093420 46 35111ft 462kts
13-Jan-21 14:34 34.636098 -116.971184 46 33230ft 467kts
13-Jan-21 14:35 34.718199 -116.848535 46 31414ft 468kts
13-Jan-21 14:36 34.800382 -116.725343 47 29586ft 470kts
13-Jan-21 14:37 34.889825 -116.610310 35 27748ft 467kts
13-Jan-21 14:38 34.992705 -116.510369 34 25876ft 479kts
13-Jan-21 14:39 35.096902 -116.406709 38 23978ft 480kts
13-Jan-21 14:40 35.188554 -116.295488 41 22265ft 453kts
13-Jan-21 14:41 35.275438 -116.186716 41 20616ft 441kts
13-Jan-21 14:42 35.360388 -116.079750 41 19005ft 435kts
13-Jan-21 14:43 35.444368 -115.973642 42 17408ft 430kts
13-Jan-21 14:44 35.526142 -115.869996 42 15848ft 416kts
13-Jan-21 14:45 35.602573 -115.772714 42 14376ft 344kts
13-Jan-21 14:46 35.660637 -115.698564 42 13113ft 268kts
13-Jan-21 14:47 35.714468 -115.630072 42 13008ft 294kts
13-Jan-21 14:48 35.778481 -115.574984 7 12998ft 279kts
13-Jan-21 14:49 35.855270 -115.570057 1 13011ft 279kts
13-Jan-21 14:50 35.933903 -115.564898 8 13011ft 275kts
13-Jan-21 14:51 35.988619 -115.509147 64 12434ft 269kts
13-Jan-21 14:52 36.015235 -115.425087 64 11525ft 262kts
13-Jan-21 14:53 36.028290 -115.335551 92 10534ft 270kts
13-Jan-21 14:54 36.021817 -115.247188 93 9508ft 253kts
13-Jan-21 14:55 36.019107 -115.163394 90 8063ft 228kts
13-Jan-21 14:56 36.019910 -115.084462 85 6704ft 220kts
13-Jan-21 14:57 36.038897 -115.030632 13 4280ft 154kts
13-Jan-21 14:58 36.073222 -115.046623 279 3265ft 156kts
13-Jan-21 14:59 36.073900 -115.098455 268 2714ft 142kts
13-Jan-21 15:00 36.073661 -115.138914 269 2184ft 54kts
13-Jan-21 15:01 36.074726 -115.145994 303 2184ft 0kts
13-Jan-21 15:02 36.077647 -115.146809 329 2184ft 17kts
13-Jan-21 15:03 36.078264 -115.139448 88 2184ft 34kts
13-Jan-21 15:04 36.078292 -115.127618 91 2184ft 28kts
13-Jan-21 15:05 36.079586 -115.126885 88 2184ft 5kts

Navigation Log

Ident Type
Flight plan parsing failed, navigation log unavailable